createdAt,value
2017-09-23T00:00:11.988Z,0.00
2017-09-23T00:01:11.906Z,0.00
2017-09-23T00:02:11.827Z,0.00
2017-09-23T00:03:11.746Z,0.00
2017-09-23T00:04:11.670Z,0.00
2017-09-23T00:05:11.589Z,0.00
2017-09-23T00:06:11.510Z,0.00
2017-09-23T00:07:11.423Z,0.00
2017-09-23T00:08:11.345Z,0.00
2017-09-23T00:09:11.271Z,0.00
2017-09-23T00:10:11.190Z,0.00
2017-09-23T00:11:11.106Z,0.00
2017-09-23T00:12:11.021Z,0.00
2017-09-23T00:13:10.943Z,0.00
2017-09-23T00:14:10.870Z,0.00
2017-09-23T00:15:10.784Z,0.00
2017-09-23T00:16:10.703Z,0.00
2017-09-23T00:17:10.631Z,0.00
2017-09-23T00:18:10.541Z,0.00
2017-09-23T00:19:10.464Z,0.00
2017-09-23T00:20:10.384Z,0.00
2017-09-23T00:21:10.302Z,0.00
2017-09-23T00:22:10.229Z,0.00
2017-09-23T00:23:10.151Z,0.00
2017-09-23T00:24:10.065Z,0.00
2017-09-23T00:25:09.983Z,0.00
2017-09-23T00:26:09.906Z,0.00
2017-09-23T00:27:09.827Z,0.00
2017-09-23T00:28:09.742Z,0.00
2017-09-23T00:29:09.666Z,0.00
2017-09-23T00:30:09.585Z,0.00
2017-09-23T00:31:09.503Z,0.00
2017-09-23T00:32:09.420Z,0.00
2017-09-23T00:33:09.347Z,0.00
2017-09-23T00:34:09.261Z,0.00
2017-09-23T00:35:09.178Z,0.00
2017-09-23T00:36:09.113Z,0.00
2017-09-23T00:37:09.022Z,0.00
2017-09-23T00:38:08.936Z,0.00
2017-09-23T00:39:08.858Z,0.00
2017-09-23T00:40:08.782Z,0.00
2017-09-23T00:41:08.697Z,0.00
2017-09-23T00:42:08.613Z,0.00
2017-09-23T00:43:08.538Z,0.00
2017-09-23T00:44:08.459Z,0.00
2017-09-23T00:45:08.377Z,0.00
2017-09-23T00:46:08.301Z,0.00
2017-09-23T00:47:08.215Z,0.00
2017-09-23T00:48:08.134Z,0.00
2017-09-23T00:49:08.059Z,0.00
2017-09-23T00:50:07.976Z,0.00
2017-09-23T00:51:07.892Z,0.00
2017-09-23T00:52:07.813Z,0.00
2017-09-23T00:53:07.746Z,0.00
2017-09-23T00:54:07.652Z,0.00
2017-09-23T00:55:07.572Z,0.00
2017-09-23T00:56:07.497Z,0.00
2017-09-23T00:57:07.412Z,0.00
2017-09-23T00:58:07.331Z,0.00
2017-09-23T00:59:07.247Z,0.00
2017-09-23T01:00:07.170Z,0.00
2017-09-23T01:01:07.090Z,0.00
2017-09-23T01:02:07.007Z,0.00
2017-09-23T01:03:06.931Z,0.00
2017-09-23T01:04:06.848Z,0.00
2017-09-23T01:05:06.767Z,0.00
2017-09-23T01:06:06.685Z,0.00
2017-09-23T01:07:06.611Z,0.00
2017-09-23T01:08:06.526Z,0.00
2017-09-23T01:09:06.447Z,0.00
2017-09-23T01:10:06.366Z,0.00
2017-09-23T01:11:06.286Z,0.00
2017-09-23T01:12:06.204Z,0.00
2017-09-23T01:13:06.134Z,0.00
2017-09-23T01:14:06.042Z,0.00
2017-09-23T01:15:05.963Z,0.00
2017-09-23T01:16:05.882Z,0.00
2017-09-23T01:17:05.800Z,0.00
2017-09-23T01:18:05.725Z,0.00
2017-09-23T01:19:05.641Z,0.00
2017-09-23T01:20:05.559Z,0.00
2017-09-23T01:21:05.484Z,0.00
2017-09-23T01:22:05.396Z,0.00
2017-09-23T01:23:05.321Z,0.00
2017-09-23T01:24:05.243Z,0.00
2017-09-23T01:25:05.160Z,0.00
2017-09-23T01:26:05.079Z,0.00
2017-09-23T01:27:04.995Z,0.00
2017-09-23T01:28:04.920Z,0.00
2017-09-23T01:29:04.848Z,0.00
2017-09-23T01:30:04.754Z,0.00
2017-09-23T01:31:04.677Z,0.00
2017-09-23T01:32:04.597Z,0.00
2017-09-23T01:33:04.515Z,0.00
2017-09-23T01:34:04.431Z,0.00
2017-09-23T01:35:04.352Z,0.00
2017-09-23T01:36:04.277Z,0.00
2017-09-23T01:37:04.189Z,0.00
2017-09-23T01:38:04.116Z,0.00
2017-09-23T01:39:04.034Z,0.00
2017-09-23T01:40:03.957Z,0.00
2017-09-23T01:41:03.870Z,0.00
2017-09-23T01:42:03.790Z,0.00
2017-09-23T01:43:03.715Z,0.00
2017-09-23T01:44:03.625Z,0.00
2017-09-23T01:45:03.549Z,0.00
2017-09-23T01:46:03.466Z,0.00
2017-09-23T01:47:03.386Z,0.00
2017-09-23T01:48:03.310Z,0.00
2017-09-23T01:49:03.227Z,0.00
2017-09-23T01:50:03.142Z,0.00
2017-09-23T01:51:03.064Z,0.00
2017-09-23T01:52:02.983Z,0.00
2017-09-23T01:53:02.910Z,0.00
2017-09-23T01:54:02.823Z,0.00
2017-09-23T01:55:02.739Z,0.00
2017-09-23T01:56:02.665Z,0.00
2017-09-23T01:57:02.579Z,0.00
2017-09-23T01:58:02.497Z,0.00
2017-09-23T01:59:02.420Z,0.00
2017-09-23T02:00:02.337Z,0.00
2017-09-23T02:01:02.254Z,0.00
2017-09-23T02:02:02.175Z,0.00
2017-09-23T02:03:02.108Z,0.00
2017-09-23T02:04:02.012Z,0.00
2017-09-23T02:05:01.932Z,0.00
2017-09-23T02:06:01.852Z,0.00
2017-09-23T02:07:01.772Z,0.00
2017-09-23T02:08:01.691Z,0.00
2017-09-23T02:09:01.632Z,0.00
2017-09-23T02:10:01.530Z,0.00
2017-09-23T02:11:01.447Z,0.00
2017-09-23T02:12:01.365Z,0.00
2017-09-23T02:13:01.309Z,0.00
2017-09-23T02:14:01.210Z,0.00
2017-09-23T02:15:01.126Z,0.00
2017-09-23T02:16:01.047Z,0.00
2017-09-23T02:17:00.970Z,0.00
2017-09-23T02:18:00.904Z,0.00
2017-09-23T02:19:00.807Z,0.00
2017-09-23T02:20:00.722Z,0.00
2017-09-23T02:21:00.640Z,0.00
2017-09-23T02:22:00.560Z,0.00
2017-09-23T02:23:00.480Z,0.00
2017-09-23T02:24:00.398Z,0.00
2017-09-23T02:25:00.323Z,0.00
2017-09-23T02:26:00.235Z,0.00
2017-09-23T02:27:00.158Z,0.00
2017-09-23T02:28:00.077Z,0.00
2017-09-23T02:28:59.997Z,0.00
2017-09-23T02:29:59.915Z,0.00
2017-09-23T02:30:59.834Z,0.00
2017-09-23T02:31:59.752Z,0.00
2017-09-23T02:32:59.671Z,0.00
2017-09-23T02:33:59.594Z,0.00
2017-09-23T02:34:59.512Z,0.00
2017-09-23T02:35:59.430Z,0.00
2017-09-23T02:36:59.349Z,0.00
2017-09-23T02:37:59.267Z,0.00
2017-09-23T02:38:59.186Z,0.00
2017-09-23T02:39:59.110Z,0.00
2017-09-23T02:40:59.023Z,0.00
2017-09-23T02:41:58.943Z,0.00
2017-09-23T02:42:58.865Z,0.00
2017-09-23T02:43:58.782Z,0.00
2017-09-23T02:44:58.699Z,0.00
2017-09-23T02:45:58.623Z,0.00
2017-09-23T02:46:58.539Z,0.00
2017-09-23T02:47:58.456Z,0.00
2017-09-23T02:48:58.377Z,0.00
2017-09-23T02:49:58.303Z,0.00
2017-09-23T02:50:58.217Z,0.00
2017-09-23T02:51:58.138Z,0.00
2017-09-23T02:52:58.056Z,0.00
2017-09-23T02:53:57.972Z,0.00
2017-09-23T02:54:57.892Z,0.00
2017-09-23T02:55:57.811Z,0.00
2017-09-23T02:56:57.731Z,0.00
2017-09-23T02:57:57.655Z,0.00
2017-09-23T02:58:57.568Z,0.00
2017-09-23T02:59:57.490Z,0.00
2017-09-23T03:00:57.407Z,0.00
2017-09-23T03:01:57.325Z,0.00
2017-09-23T03:02:57.248Z,0.00
2017-09-23T03:03:57.167Z,0.00
2017-09-23T03:04:57.087Z,0.00
2017-09-23T03:05:56.999Z,0.00
2017-09-23T03:06:56.922Z,0.00
2017-09-23T03:07:56.840Z,0.00
2017-09-23T03:08:56.763Z,0.00
2017-09-23T03:09:56.699Z,0.00
2017-09-23T03:10:56.598Z,0.00
2017-09-23T03:11:56.519Z,0.00
2017-09-23T03:12:56.437Z,0.00
2017-09-23T03:13:56.355Z,0.00
2017-09-23T03:14:56.273Z,0.00
2017-09-23T03:15:56.193Z,0.00
2017-09-23T03:16:56.112Z,0.00
2017-09-23T03:17:56.034Z,0.00
2017-09-23T03:18:55.950Z,0.00
2017-09-23T03:19:55.873Z,0.00
2017-09-23T03:20:55.788Z,0.00
2017-09-23T03:21:55.715Z,0.00
2017-09-23T03:22:55.625Z,0.00
2017-09-23T03:23:55.555Z,0.00
2017-09-23T03:24:55.470Z,0.00
2017-09-23T03:25:55.385Z,0.00
2017-09-23T03:26:55.303Z,0.00
2017-09-23T03:27:55.226Z,0.00
2017-09-23T03:28:55.143Z,0.00
2017-09-23T03:29:55.059Z,0.00
2017-09-23T03:30:54.989Z,0.00
2017-09-23T03:31:54.899Z,0.00
2017-09-23T03:32:54.820Z,0.00
2017-09-23T03:33:54.748Z,0.00
2017-09-23T03:34:54.662Z,0.00
2017-09-23T03:35:54.574Z,0.00
2017-09-23T03:36:54.493Z,0.00
2017-09-23T03:37:54.411Z,0.00
2017-09-23T03:38:54.329Z,0.00
2017-09-23T03:39:54.249Z,0.00
2017-09-23T03:40:54.165Z,0.00
2017-09-23T03:41:54.087Z,0.00
2017-09-23T03:42:54.005Z,0.00
2017-09-23T03:43:53.926Z,0.00
2017-09-23T03:44:53.843Z,0.00
2017-09-23T03:45:53.765Z,0.00
2017-09-23T03:46:53.683Z,0.00
2017-09-23T03:47:53.604Z,0.00
2017-09-23T03:48:53.520Z,0.00
2017-09-23T03:49:53.437Z,0.00
2017-09-23T03:50:53.357Z,0.00
2017-09-23T03:51:53.282Z,0.00
2017-09-23T03:52:53.200Z,0.00
2017-09-23T03:53:53.118Z,0.00
2017-09-23T03:54:53.032Z,0.00
2017-09-23T03:55:52.954Z,0.00
2017-09-23T03:56:52.906Z,0.00
2017-09-23T03:57:52.803Z,0.00
2017-09-23T03:58:52.710Z,0.00
2017-09-23T03:59:52.629Z,0.00
2017-09-23T04:00:52.547Z,0.00
2017-09-23T04:01:52.471Z,0.00
2017-09-23T04:02:52.383Z,0.00
2017-09-23T04:03:52.316Z,0.00
2017-09-23T04:04:52.226Z,0.00
2017-09-23T04:05:52.144Z,0.00
2017-09-23T04:06:52.060Z,0.00
2017-09-23T04:07:51.982Z,0.00
2017-09-23T04:08:51.897Z,0.00
2017-09-23T04:09:51.820Z,0.00
2017-09-23T04:10:51.736Z,0.00
2017-09-23T04:11:51.652Z,0.00
2017-09-23T04:12:51.572Z,0.00
2017-09-23T04:13:51.505Z,0.00
2017-09-23T04:14:51.415Z,0.00
2017-09-23T04:15:51.332Z,0.00
2017-09-23T04:16:51.275Z,0.00
2017-09-23T04:17:51.174Z,0.00
2017-09-23T04:18:51.098Z,0.00
2017-09-23T04:19:51.007Z,0.00
2017-09-23T04:20:50.936Z,0.00
2017-09-23T04:21:50.847Z,0.00
2017-09-23T04:22:50.767Z,0.00
2017-09-23T04:23:50.692Z,0.00
2017-09-23T04:24:50.603Z,0.00
2017-09-23T04:25:50.527Z,0.00
2017-09-23T04:26:50.439Z,0.00
2017-09-23T04:27:50.380Z,0.00
2017-09-23T04:28:50.280Z,0.00
2017-09-23T04:29:50.191Z,0.00
2017-09-23T04:30:50.110Z,0.00
2017-09-23T04:31:50.035Z,0.00
2017-09-23T04:32:49.964Z,0.00
2017-09-23T04:33:49.870Z,0.00
2017-09-23T04:34:49.784Z,0.00
2017-09-23T04:35:49.716Z,0.00
2017-09-23T04:36:49.622Z,0.00
2017-09-23T04:37:49.548Z,0.00
2017-09-23T04:38:49.463Z,0.00
2017-09-23T04:39:49.389Z,0.00
2017-09-23T04:40:49.306Z,0.00
2017-09-23T04:41:49.220Z,0.00
2017-09-23T04:42:49.137Z,0.00
2017-09-23T04:43:49.055Z,0.00
2017-09-23T04:44:48.977Z,0.00
2017-09-23T04:45:48.931Z,0.00
2017-09-23T04:46:48.813Z,0.00
2017-09-23T04:47:48.732Z,0.00
2017-09-23T04:48:48.648Z,0.00
2017-09-23T04:49:48.571Z,0.00
2017-09-23T04:50:48.487Z,0.00
2017-09-23T04:51:48.403Z,0.00
2017-09-23T04:52:48.324Z,0.00
2017-09-23T04:53:48.245Z,0.00
2017-09-23T04:54:48.159Z,0.00
2017-09-23T04:55:48.081Z,0.00
2017-09-23T04:56:48.002Z,0.00
2017-09-23T04:57:47.918Z,0.00
2017-09-23T04:58:47.834Z,0.00
2017-09-23T04:59:47.754Z,0.00
2017-09-23T05:00:47.681Z,0.00
2017-09-23T05:01:47.594Z,0.00
2017-09-23T05:02:47.510Z,0.00
2017-09-23T05:03:47.431Z,0.00
2017-09-23T05:04:47.350Z,0.00
2017-09-23T05:05:47.270Z,0.00
2017-09-23T05:06:47.185Z,0.00
2017-09-23T05:07:47.109Z,0.00
2017-09-23T05:08:47.025Z,5.63
2017-09-23T05:09:46.947Z,5.63
2017-09-23T05:10:46.861Z,5.63
2017-09-23T05:11:46.782Z,5.63
2017-09-23T05:12:46.699Z,5.63
2017-09-23T05:13:46.618Z,5.63
2017-09-23T05:14:46.535Z,5.63
2017-09-23T05:15:46.454Z,5.63
2017-09-23T05:16:46.372Z,11.25
2017-09-23T05:17:46.295Z,11.25
2017-09-23T05:18:46.212Z,11.25
2017-09-23T05:19:46.126Z,11.25
2017-09-23T05:20:46.051Z,11.25
2017-09-23T05:21:45.967Z,16.88
2017-09-23T05:22:45.883Z,16.88
2017-09-23T05:23:45.801Z,16.88
2017-09-23T05:24:45.720Z,16.88
2017-09-23T05:25:45.640Z,22.50
2017-09-23T05:26:45.557Z,22.50
2017-09-23T05:27:45.478Z,22.50
2017-09-23T05:28:45.400Z,28.13
2017-09-23T05:29:45.317Z,28.13
2017-09-23T05:30:45.229Z,28.13
2017-09-23T05:31:45.149Z,33.75
2017-09-23T05:32:45.070Z,33.75
2017-09-23T05:33:44.989Z,33.75
2017-09-23T05:34:44.908Z,39.38
2017-09-23T05:35:44.824Z,39.38
2017-09-23T05:36:44.743Z,39.38
2017-09-23T05:37:44.666Z,45.00
2017-09-23T05:38:44.577Z,45.00
2017-09-23T05:39:44.505Z,50.63
2017-09-23T05:40:44.425Z,56.25
2017-09-23T05:41:44.361Z,56.25
2017-09-23T05:42:44.254Z,84.38
2017-09-23T05:43:44.175Z,90.00
2017-09-23T05:44:44.091Z,73.13
2017-09-23T05:45:44.007Z,78.75
2017-09-23T05:46:43.934Z,78.75
2017-09-23T05:47:43.851Z,101.25
2017-09-23T05:48:43.765Z,157.50
2017-09-23T05:49:43.682Z,202.50
2017-09-23T05:50:43.613Z,213.75
2017-09-23T05:51:43.521Z,213.75
2017-09-23T05:52:43.448Z,135.00
2017-09-23T05:53:43.361Z,90.00
2017-09-23T05:54:43.277Z,112.50
2017-09-23T05:55:43.197Z,118.13
2017-09-23T05:56:43.118Z,95.63
2017-09-23T05:57:43.038Z,95.63
2017-09-23T05:58:42.954Z,101.25
2017-09-23T05:59:42.872Z,106.88
2017-09-23T06:00:42.789Z,112.50
2017-09-23T06:01:42.707Z,112.50
2017-09-23T06:02:42.625Z,118.13
2017-09-23T06:03:42.546Z,118.13
2017-09-23T06:04:42.466Z,118.13
2017-09-23T06:05:42.381Z,123.75
2017-09-23T06:06:42.306Z,129.38
2017-09-23T06:07:42.230Z,129.38
2017-09-23T06:08:42.140Z,135.00
2017-09-23T06:09:42.059Z,135.00
2017-09-23T06:10:41.979Z,135.00
2017-09-23T06:11:41.900Z,140.63
2017-09-23T06:12:41.817Z,146.25
2017-09-23T06:13:41.732Z,146.25
2017-09-23T06:14:41.672Z,157.50
2017-09-23T06:15:41.568Z,151.88
2017-09-23T06:16:41.491Z,157.50
2017-09-23T06:17:41.416Z,163.13
2017-09-23T06:18:41.332Z,168.75
2017-09-23T06:19:41.246Z,174.38
2017-09-23T06:20:41.164Z,174.38
2017-09-23T06:21:41.090Z,180.00
2017-09-23T06:22:41.004Z,185.63
2017-09-23T06:23:40.920Z,191.25
2017-09-23T06:24:40.841Z,202.50
2017-09-23T06:25:40.761Z,208.13
2017-09-23T06:26:40.677Z,213.75
2017-09-23T06:27:40.597Z,219.38
2017-09-23T06:28:40.522Z,225.00
2017-09-23T06:29:40.442Z,230.63
2017-09-23T06:30:40.355Z,236.25
2017-09-23T06:31:40.273Z,247.50
2017-09-23T06:32:40.196Z,247.50
2017-09-23T06:33:40.110Z,247.50
2017-09-23T06:34:40.039Z,253.13
2017-09-23T06:35:39.982Z,253.13
2017-09-23T06:36:39.872Z,258.75
2017-09-23T06:37:39.788Z,258.75
2017-09-23T06:38:39.724Z,258.75
2017-09-23T06:39:39.629Z,264.38
2017-09-23T06:40:39.553Z,270.00
2017-09-23T06:41:39.466Z,270.00
2017-09-23T06:42:39.409Z,275.63
2017-09-23T06:43:39.310Z,286.88
2017-09-23T06:44:39.227Z,320.63
2017-09-23T06:45:39.161Z,286.88
2017-09-23T06:46:39.064Z,292.50
2017-09-23T06:47:38.981Z,298.13
2017-09-23T06:48:38.905Z,410.63
2017-09-23T06:49:38.826Z,320.63
2017-09-23T06:50:38.741Z,343.13
2017-09-23T06:51:38.664Z,343.13
2017-09-23T06:52:38.592Z,337.50
2017-09-23T06:53:38.497Z,331.88
2017-09-23T06:54:38.415Z,337.50
2017-09-23T06:55:38.341Z,354.38
2017-09-23T06:56:38.257Z,365.63
2017-09-23T06:57:38.180Z,376.88
2017-09-23T06:58:38.097Z,382.50
2017-09-23T06:59:38.014Z,399.38
2017-09-23T07:00:37.940Z,421.88
2017-09-23T07:01:37.859Z,444.38
2017-09-23T07:02:37.772Z,455.63
2017-09-23T07:03:37.712Z,455.63
2017-09-23T07:04:37.615Z,450.00
2017-09-23T07:05:37.537Z,433.13
2017-09-23T07:06:37.457Z,433.13
2017-09-23T07:07:37.373Z,433.13
2017-09-23T07:08:37.293Z,433.13
2017-09-23T07:09:37.213Z,427.50
2017-09-23T07:10:37.134Z,421.88
2017-09-23T07:11:37.055Z,416.25
2017-09-23T07:12:36.976Z,433.13
2017-09-23T07:13:36.894Z,438.75
2017-09-23T07:14:36.814Z,433.13
2017-09-23T07:15:36.737Z,433.13
2017-09-23T07:16:36.653Z,444.38
2017-09-23T07:17:36.567Z,455.63
2017-09-23T07:18:36.505Z,483.75
2017-09-23T07:19:36.411Z,517.50
2017-09-23T07:20:36.328Z,551.25
2017-09-23T07:21:36.256Z,551.25
2017-09-23T07:22:36.178Z,545.63
2017-09-23T07:23:36.106Z,511.88
2017-09-23T07:24:36.015Z,500.63
2017-09-23T07:25:35.934Z,495.00
2017-09-23T07:26:35.851Z,506.25
2017-09-23T07:27:35.773Z,511.88
2017-09-23T07:28:35.697Z,517.50
2017-09-23T07:29:35.618Z,545.63
2017-09-23T07:30:35.534Z,573.75
2017-09-23T07:31:35.461Z,585.00
2017-09-23T07:32:35.379Z,556.88
2017-09-23T07:33:35.300Z,528.75
2017-09-23T07:34:35.232Z,534.38
2017-09-23T07:35:35.142Z,545.63
2017-09-23T07:36:35.058Z,585.00
2017-09-23T07:37:34.979Z,675.00
2017-09-23T07:38:34.903Z,675.00
2017-09-23T07:39:34.820Z,675.00
2017-09-23T07:40:34.741Z,675.00
2017-09-23T07:41:34.663Z,748.13
2017-09-23T07:42:34.579Z,815.63
2017-09-23T07:43:34.531Z,798.75
2017-09-23T07:44:34.425Z,776.25
2017-09-23T07:45:34.349Z,781.88
2017-09-23T07:46:34.266Z,787.50
2017-09-23T07:47:34.191Z,804.38
2017-09-23T07:48:34.109Z,810.00
2017-09-23T07:49:34.032Z,821.25
2017-09-23T07:50:33.947Z,832.50
2017-09-23T07:51:33.875Z,866.25
2017-09-23T07:52:33.796Z,1130.63
2017-09-23T07:53:33.723Z,1350.00
2017-09-23T07:54:33.636Z,1192.50
2017-09-23T07:55:33.572Z,1698.75
2017-09-23T07:56:33.482Z,1659.38
2017-09-23T07:57:33.403Z,1721.25
2017-09-23T07:58:33.325Z,1451.25
2017-09-23T07:59:33.255Z,984.38
2017-09-23T08:00:33.169Z,2154.38
2017-09-23T08:01:33.095Z,3605.63
2017-09-23T08:02:33.016Z,3892.50
2017-09-23T08:03:32.943Z,3819.38
2017-09-23T08:04:32.861Z,3549.38
2017-09-23T08:05:32.784Z,3138.75
2017-09-23T08:06:32.714Z,2559.38
2017-09-23T08:07:32.632Z,1991.25
2017-09-23T08:08:32.556Z,1501.88
2017-09-23T08:09:32.477Z,1136.25
2017-09-23T08:10:32.405Z,1023.75
2017-09-23T08:11:32.348Z,1035.00
2017-09-23T08:12:32.249Z,1029.38
2017-09-23T08:13:32.175Z,1029.38
2017-09-23T08:14:32.096Z,1029.38
2017-09-23T08:15:32.023Z,1046.25
2017-09-23T08:16:31.946Z,1046.25
2017-09-23T08:17:31.871Z,1051.88
2017-09-23T08:18:31.815Z,1057.50
2017-09-23T08:19:31.725Z,1063.13
2017-09-23T08:20:31.651Z,1068.75
2017-09-23T08:21:31.574Z,1068.75
2017-09-23T08:22:31.497Z,1080.00
2017-09-23T08:23:31.423Z,1074.38
2017-09-23T08:24:31.360Z,1080.00
2017-09-23T08:25:31.275Z,1091.25
2017-09-23T08:26:31.197Z,1085.63
2017-09-23T08:27:31.124Z,1091.25
2017-09-23T08:28:31.050Z,1102.50
2017-09-23T08:29:30.974Z,1108.13
2017-09-23T08:30:30.906Z,1119.38
2017-09-23T08:31:30.833Z,1113.75
2017-09-23T08:32:30.751Z,1125.00
2017-09-23T08:33:30.683Z,1130.63
2017-09-23T08:34:30.610Z,1141.88
2017-09-23T08:35:30.531Z,1147.50
2017-09-23T08:36:30.481Z,1158.75
2017-09-23T08:37:30.386Z,1170.00
2017-09-23T08:38:30.311Z,1175.63
2017-09-23T08:39:30.251Z,1181.25
2017-09-23T08:40:30.171Z,1192.50
2017-09-23T08:41:30.091Z,1198.13
2017-09-23T08:42:30.021Z,1209.38
2017-09-23T08:43:29.951Z,1226.25
2017-09-23T08:44:29.882Z,1248.75
2017-09-23T08:45:29.808Z,1327.50
2017-09-23T08:46:29.739Z,1496.25
2017-09-23T08:47:29.662Z,1732.50
2017-09-23T08:48:29.590Z,1991.25
2017-09-23T08:49:29.519Z,2289.38
2017-09-23T08:50:29.443Z,2593.13
2017-09-23T08:51:29.377Z,2846.25
2017-09-23T08:52:29.304Z,2896.88
2017-09-23T08:53:29.232Z,2835.00
2017-09-23T08:54:29.155Z,2694.38
2017-09-23T08:55:29.088Z,2553.75
2017-09-23T08:56:29.022Z,2362.50
2017-09-23T08:57:28.950Z,2064.38
2017-09-23T08:58:28.875Z,1800.00
2017-09-23T08:59:28.804Z,1569.38
2017-09-23T09:00:28.732Z,1383.75
2017-09-23T09:01:28.662Z,1338.75
2017-09-23T09:02:28.619Z,1327.50
2017-09-23T09:03:28.516Z,1327.50
2017-09-23T09:04:28.451Z,1321.88
2017-09-23T09:05:28.391Z,1316.25
2017-09-23T09:06:28.308Z,1321.88
2017-09-23T09:07:28.243Z,1316.25
2017-09-23T09:08:28.173Z,1327.50
2017-09-23T09:09:28.112Z,1321.88
2017-09-23T09:10:28.030Z,1321.88
2017-09-23T09:11:27.959Z,1338.75
2017-09-23T09:12:27.886Z,1338.75
2017-09-23T09:13:27.821Z,1355.63
2017-09-23T09:14:27.751Z,1355.63
2017-09-23T09:15:27.682Z,1361.25
2017-09-23T09:16:27.609Z,1372.50
2017-09-23T09:17:27.542Z,1400.63
2017-09-23T09:18:27.484Z,1541.25
2017-09-23T09:19:27.404Z,1833.75
2017-09-23T09:20:27.339Z,2143.13
2017-09-23T09:21:27.266Z,2514.38
2017-09-23T09:22:27.199Z,2880.00
2017-09-23T09:23:27.126Z,3228.75
2017-09-23T09:24:27.065Z,3594.38
2017-09-23T09:25:26.992Z,3746.25
2017-09-23T09:26:26.923Z,3751.88
2017-09-23T09:27:26.854Z,3723.75
2017-09-23T09:28:26.792Z,3673.13
2017-09-23T09:29:26.723Z,3729.38
2017-09-23T09:30:26.652Z,3791.25
2017-09-23T09:31:26.597Z,3763.13
2017-09-23T09:32:26.518Z,3673.13
2017-09-23T09:33:26.464Z,3673.13
2017-09-23T09:34:26.385Z,3695.63
2017-09-23T09:35:26.312Z,3622.50
2017-09-23T09:36:26.247Z,3690.00
2017-09-23T09:37:26.181Z,3667.50
2017-09-23T09:38:26.113Z,3639.38
2017-09-23T09:39:26.055Z,3735.00
2017-09-23T09:40:25.979Z,3763.13
2017-09-23T09:41:25.912Z,3678.75
2017-09-23T09:42:25.843Z,3712.50
2017-09-23T09:43:25.771Z,3729.38
2017-09-23T09:44:25.719Z,3796.88
2017-09-23T09:45:25.645Z,3763.13
2017-09-23T09:46:25.577Z,3650.63
2017-09-23T09:47:25.509Z,3622.50
2017-09-23T09:48:25.453Z,3661.88
2017-09-23T09:49:25.380Z,3678.75
2017-09-23T09:50:25.320Z,3690.00
2017-09-23T09:51:25.244Z,3639.38
2017-09-23T09:52:25.178Z,3718.13
2017-09-23T09:53:25.123Z,3695.63
2017-09-23T09:54:25.049Z,3656.25
2017-09-23T09:55:24.987Z,3673.13
2017-09-23T09:56:24.931Z,3633.75
2017-09-23T09:57:24.850Z,3566.25
2017-09-23T09:58:24.787Z,3616.88
2017-09-23T09:59:24.738Z,3549.38
2017-09-23T10:00:24.657Z,3594.38
2017-09-23T10:01:24.608Z,3667.50
2017-09-23T10:02:24.526Z,3588.75
2017-09-23T10:03:24.453Z,3633.75
2017-09-23T10:04:24.393Z,3684.38
2017-09-23T10:05:24.322Z,3690.00
2017-09-23T10:06:24.264Z,3611.25
2017-09-23T10:07:24.189Z,3391.88
2017-09-23T10:08:24.129Z,3594.38
2017-09-23T10:09:24.063Z,3757.50
2017-09-23T10:10:23.998Z,3701.25
2017-09-23T10:11:23.929Z,3650.63
2017-09-23T10:12:23.875Z,3521.25
2017-09-23T10:13:23.826Z,3386.25
2017-09-23T10:14:23.741Z,3493.13
2017-09-23T10:15:23.671Z,3515.63
2017-09-23T10:16:23.605Z,3504.38
2017-09-23T10:17:23.538Z,3538.13
2017-09-23T10:18:23.482Z,3526.88
2017-09-23T10:19:23.448Z,3498.75
2017-09-23T10:20:23.380Z,3453.75
2017-09-23T10:21:23.275Z,3493.13
2017-09-23T10:22:23.213Z,3375.00
2017-09-23T10:23:23.151Z,3335.63
2017-09-23T10:24:23.088Z,3369.38
2017-09-23T10:25:23.013Z,3408.75
2017-09-23T10:26:22.950Z,3465.00
2017-09-23T10:27:22.884Z,3425.63
2017-09-23T10:28:22.821Z,3391.88
2017-09-23T10:29:22.750Z,3414.38
2017-09-23T10:30:22.687Z,3481.88
2017-09-23T10:31:22.626Z,3425.63
2017-09-23T10:32:22.557Z,3386.25
2017-09-23T10:33:22.495Z,3408.75
2017-09-23T10:34:22.434Z,3408.75
2017-09-23T10:35:22.365Z,3555.00
2017-09-23T10:36:22.308Z,3476.25
2017-09-23T10:37:22.238Z,3391.88
2017-09-23T10:38:22.172Z,3403.13
2017-09-23T10:39:22.105Z,3408.75
2017-09-23T10:40:22.044Z,3352.50
2017-09-23T10:41:21.980Z,3279.38
2017-09-23T10:42:21.917Z,3121.88
2017-09-23T10:43:21.863Z,3082.50
2017-09-23T10:44:21.793Z,3352.50
2017-09-23T10:45:21.727Z,3436.88
2017-09-23T10:46:21.659Z,3431.25
2017-09-23T10:47:21.599Z,3296.25
2017-09-23T10:48:21.527Z,3346.88
2017-09-23T10:49:21.490Z,3397.50
2017-09-23T10:50:21.405Z,3414.38
2017-09-23T10:51:21.330Z,3335.63
2017-09-23T10:52:21.266Z,3273.75
2017-09-23T10:53:21.225Z,3228.75
2017-09-23T10:54:21.152Z,3054.38
2017-09-23T10:55:21.074Z,2047.50
2017-09-23T10:56:21.006Z,1203.75
2017-09-23T10:57:20.940Z,1147.50
2017-09-23T10:58:20.868Z,1130.63
2017-09-23T10:59:20.801Z,1130.63
2017-09-23T11:00:20.736Z,1136.25
2017-09-23T11:01:20.678Z,1254.38
2017-09-23T11:02:20.617Z,2238.75
2017-09-23T11:03:20.553Z,2795.63
2017-09-23T11:04:20.473Z,3037.50
2017-09-23T11:05:20.412Z,3200.63
2017-09-23T11:06:20.369Z,3268.13
2017-09-23T11:07:20.278Z,3161.25
2017-09-23T11:08:20.226Z,3110.63
2017-09-23T11:09:20.149Z,3166.88
2017-09-23T11:10:20.086Z,3240.00
2017-09-23T11:11:20.017Z,3234.38
2017-09-23T11:12:19.958Z,2570.63
2017-09-23T11:13:19.881Z,1423.13
2017-09-23T11:14:19.816Z,1119.38
2017-09-23T11:15:19.789Z,1108.13
2017-09-23T11:16:19.687Z,1096.88
2017-09-23T11:17:19.618Z,1096.88
2017-09-23T11:18:19.577Z,1136.25
2017-09-23T11:19:19.489Z,1963.13
2017-09-23T11:20:19.417Z,2863.13
2017-09-23T11:21:19.353Z,2941.88
2017-09-23T11:22:19.291Z,2981.25
2017-09-23T11:23:19.226Z,3060.00
2017-09-23T11:24:19.160Z,3071.25
2017-09-23T11:25:19.088Z,3150.00
2017-09-23T11:26:19.024Z,2666.25
2017-09-23T11:27:18.959Z,2677.50
2017-09-23T11:28:18.894Z,2998.13
2017-09-23T11:29:18.830Z,2874.38
2017-09-23T11:30:18.765Z,3521.25
2017-09-23T11:31:18.699Z,4230.00
2017-09-23T11:32:18.634Z,4246.88
2017-09-23T11:33:18.572Z,4190.63
2017-09-23T11:34:18.505Z,4145.63
2017-09-23T11:35:18.442Z,4078.13
2017-09-23T11:36:18.379Z,4044.38
2017-09-23T11:37:18.314Z,4021.88
2017-09-23T11:38:18.247Z,4066.88
2017-09-23T11:39:18.179Z,4066.88
2017-09-23T11:40:18.114Z,3999.38
2017-09-23T11:41:18.056Z,4010.63
2017-09-23T11:42:17.997Z,3459.38
2017-09-23T11:43:17.911Z,1575.00
2017-09-23T11:44:17.842Z,916.88
2017-09-23T11:45:17.773Z,905.63
2017-09-23T11:46:17.735Z,894.38
2017-09-23T11:47:17.638Z,883.13
2017-09-23T11:48:17.567Z,883.13
2017-09-23T11:49:17.497Z,883.13
2017-09-23T11:50:17.434Z,888.75
2017-09-23T11:51:17.365Z,888.75
2017-09-23T11:52:17.294Z,883.13
2017-09-23T11:53:17.225Z,888.75
2017-09-23T11:54:17.165Z,787.50
2017-09-23T11:55:17.116Z,843.75
2017-09-23T11:56:17.028Z,663.75
2017-09-23T11:57:16.958Z,838.13
2017-09-23T11:58:16.874Z,832.50
2017-09-23T11:59:16.808Z,832.50
2017-09-23T12:00:16.728Z,838.13
2017-09-23T12:01:16.681Z,843.75
2017-09-23T12:02:16.597Z,849.38
2017-09-23T12:03:16.518Z,849.38
2017-09-23T12:04:16.456Z,838.13
2017-09-23T12:05:16.374Z,815.63
2017-09-23T12:06:16.306Z,804.38
2017-09-23T12:07:16.233Z,804.38
2017-09-23T12:08:16.174Z,787.50
2017-09-23T12:09:16.086Z,765.00
2017-09-23T12:10:16.016Z,759.38
2017-09-23T12:11:15.952Z,770.63
2017-09-23T12:12:15.902Z,770.63
2017-09-23T12:13:15.808Z,759.38
2017-09-23T12:14:15.733Z,753.75
2017-09-23T12:15:15.671Z,748.13
2017-09-23T12:16:15.589Z,742.50
2017-09-23T12:17:15.519Z,736.88
2017-09-23T12:18:15.448Z,736.88
2017-09-23T12:19:15.375Z,731.25
2017-09-23T12:20:15.309Z,725.63
2017-09-23T12:21:15.225Z,725.63
2017-09-23T12:22:15.154Z,714.38
2017-09-23T12:23:15.093Z,720.00
2017-09-23T12:24:15.014Z,720.00
2017-09-23T12:25:14.940Z,675.00
2017-09-23T12:26:14.867Z,601.88
2017-09-23T12:27:14.807Z,562.50
2017-09-23T12:28:14.721Z,562.50
2017-09-23T12:29:14.649Z,556.88
2017-09-23T12:30:14.576Z,652.50
2017-09-23T12:31:14.517Z,652.50
2017-09-23T12:32:14.437Z,646.88
2017-09-23T12:33:14.359Z,630.00
2017-09-23T12:34:14.291Z,697.50
2017-09-23T12:35:14.213Z,720.00
2017-09-23T12:36:14.154Z,742.50
2017-09-23T12:37:14.078Z,759.38
2017-09-23T12:38:14.006Z,770.63
2017-09-23T12:39:13.951Z,765.00
2017-09-23T12:40:13.869Z,759.38
2017-09-23T12:41:13.793Z,736.88